LICR/REG METAR and TAF weather

Enter ICAO airport designator
Station Type Date Time Source
LICR METAR 2020/10/21 21:50 UTC NOAA

LICR 212150Z 08005KT CAVOK 16/12 Q1025


Station Type Date Time Source
LICR Decoded METAR 2020/10/21 21:50 UTC NOAA

Reggio Calabria, Italy (LICR) 38-04N 015-39E 21M
Oct 21, 2020 - 05:50 PM EDT / 2020.10.21 2150 UTC
Wind: from the E (080 degrees) at 6 MPH (5 KT):0
Visibility: greater than 7 mile(s):0
Temperature: 60 F (16 C)
Dew Point: 53 F (12 C)
Relative Humidity: 77%
Pressure (altimeter): 30.27 in. Hg (1025 hPa)
ob: LICR 212150Z 08005KT CAVOK 16/12 Q1025
cycle: 22

Station Type Date Time Source
LICR TAF 2020/10/21 18:27 UTC NOAA

TAF TAF LICR 212219Z 2118/2218 CNL

Example: see airport list